sensor_id;sensor_type;location;lat;lon;timestamp;temperature;humidity
67101;DHT22;54019;61.746;16.106;2023-02-07T00:01:24;22.50;25.60
67101;DHT22;54019;61.746;16.106;2023-02-07T00:03:50;22.50;25.50
67101;DHT22;54019;61.746;16.106;2023-02-07T00:06:19;22.50;25.40
67101;DHT22;54019;61.746;16.106;2023-02-07T00:08:46;22.60;25.40
67101;DHT22;54019;61.746;16.106;2023-02-07T00:11:14;22.60;25.30
67101;DHT22;54019;61.746;16.106;2023-02-07T00:13:40;22.60;25.30
67101;DHT22;54019;61.746;16.106;2023-02-07T00:16:06;22.70;25.40
67101;DHT22;54019;61.746;16.106;2023-02-07T00:18:33;22.70;25.20
67101;DHT22;54019;61.746;16.106;2023-02-07T00:21:00;22.70;25.20
67101;DHT22;54019;61.746;16.106;2023-02-07T00:23:27;22.70;25.20
67101;DHT22;54019;61.746;16.106;2023-02-07T00:25:53;22.70;25.10
67101;DHT22;54019;61.746;16.106;2023-02-07T00:28:19;22.70;25.20
67101;DHT22;54019;61.746;16.106;2023-02-07T00:30:45;22.60;25.00
67101;DHT22;54019;61.746;16.106;2023-02-07T00:33:11;22.60;25.00
67101;DHT22;54019;61.746;16.106;2023-02-07T00:35:37;22.60;25.20
67101;DHT22;54019;61.746;16.106;2023-02-07T00:38:03;22.50;25.10
67101;DHT22;54019;61.746;16.106;2023-02-07T00:40:30;22.50;25.20
67101;DHT22;54019;61.746;16.106;2023-02-07T00:42:56;22.50;25.10
67101;DHT22;54019;61.746;16.106;2023-02-07T00:45:22;22.50;25.10
67101;DHT22;54019;61.746;16.106;2023-02-07T00:47:47;22.50;25.10
67101;DHT22;54019;61.746;16.106;2023-02-07T00:50:13;22.60;25.00
67101;DHT22;54019;61.746;16.106;2023-02-07T00:52:39;22.60;25.00
67101;DHT22;54019;61.746;16.106;2023-02-07T00:55:05;22.60;24.80
67101;DHT22;54019;61.746;16.106;2023-02-07T00:57:33;22.70;24.90
67101;DHT22;54019;61.746;16.106;2023-02-07T00:59:59;22.70;24.80
67101;DHT22;54019;61.746;16.106;2023-02-07T01:02:25;22.70;24.80
67101;DHT22;54019;61.746;16.106;2023-02-07T01:04:50;22.60;24.70
67101;DHT22;54019;61.746;16.106;2023-02-07T01:07:16;22.60;24.70
67101;DHT22;54019;61.746;16.106;2023-02-07T01:09:42;22.60;24.70
67101;DHT22;54019;61.746;16.106;2023-02-07T01:12:08;22.50;24.70
67101;DHT22;54019;61.746;16.106;2023-02-07T01:14:35;22.50;24.80
67101;DHT22;54019;61.746;16.106;2023-02-07T01:17:01;22.50;24.80
67101;DHT22;54019;61.746;16.106;2023-02-07T01:19:27;22.40;24.60
67101;DHT22;54019;61.746;16.106;2023-02-07T01:21:53;22.40;24.60
67101;DHT22;54019;61.746;16.106;2023-02-07T01:24:18;22.40;24.60
67101;DHT22;54019;61.746;16.106;2023-02-07T01:26:44;22.50;24.70
67101;DHT22;54019;61.746;16.106;2023-02-07T01:29:13;22.50;24.70
67101;DHT22;54019;61.746;16.106;2023-02-07T01:31:42;22.50;24.60
67101;DHT22;54019;61.746;16.106;2023-02-07T01:34:10;22.50;24.60
67101;DHT22;54019;61.746;16.106;2023-02-07T01:36:36;22.60;24.50
67101;DHT22;54019;61.746;16.106;2023-02-07T01:39:02;22.60;24.40
67101;DHT22;54019;61.746;16.106;2023-02-07T01:41:28;22.60;24.40
67101;DHT22;54019;61.746;16.106;2023-02-07T01:43:57;22.60;24.40
67101;DHT22;54019;61.746;16.106;2023-02-07T01:46:23;22.60;24.40
67101;DHT22;54019;61.746;16.106;2023-02-07T01:48:51;22.60;24.40
67101;DHT22;54019;61.746;16.106;2023-02-07T01:51:18;22.50;24.50
67101;DHT22;54019;61.746;16.106;2023-02-07T01:53:44;22.50;24.60
67101;DHT22;54019;61.746;16.106;2023-02-07T01:56:12;22.40;24.50
67101;DHT22;54019;61.746;16.106;2023-02-07T01:58:39;22.40;24.50
67101;DHT22;54019;61.746;16.106;2023-02-07T02:01:09;22.40;24.40
67101;DHT22;54019;61.746;16.106;2023-02-07T02:03:38;22.50;24.60
67101;DHT22;54019;61.746;16.106;2023-02-07T02:06:07;22.40;24.50
67101;DHT22;54019;61.746;16.106;2023-02-07T02:08:33;22.50;24.50
67101;DHT22;54019;61.746;16.106;2023-02-07T02:11:08;22.50;25.10
67101;DHT22;54019;61.746;16.106;2023-02-07T02:13:43;22.50;24.40
67101;DHT22;54019;61.746;16.106;2023-02-07T02:16:18;22.60;24.30
67101;DHT22;54019;61.746;16.106;2023-02-07T02:19:10;22.70;24.20
67101;DHT22;54019;61.746;16.106;2023-02-07T02:25:10;22.70;24.10
67101;DHT22;54019;61.746;16.106;2023-02-07T02:28:07;22.60;24.20
67101;DHT22;54019;61.746;16.106;2023-02-07T02:33:47;22.50;24.30
67101;DHT22;54019;61.746;16.106;2023-02-07T02:36:25;22.40;24.10
67101;DHT22;54019;61.746;16.106;2023-02-07T02:38:57;22.40;24.20
67101;DHT22;54019;61.746;16.106;2023-02-07T02:41:29;22.40;24.10
67101;DHT22;54019;61.746;16.106;2023-02-07T02:43:58;22.40;24.20
67101;DHT22;54019;61.746;16.106;2023-02-07T02:46:29;22.50;24.20
67101;DHT22;54019;61.746;16.106;2023-02-07T02:48:57;22.50;24.10
67101;DHT22;54019;61.746;16.106;2023-02-07T02:51:27;22.60;24.10
67101;DHT22;54019;61.746;16.106;2023-02-07T02:53:53;22.60;24.00
67101;DHT22;54019;61.746;16.106;2023-02-07T02:56:41;22.60;23.90
67101;DHT22;54019;61.746;16.106;2023-02-07T02:59:23;22.60;23.90
67101;DHT22;54019;61.746;16.106;2023-02-07T03:01:58;22.60;23.90
67101;DHT22;54019;61.746;16.106;2023-02-07T03:04:49;22.60;23.90
67101;DHT22;54019;61.746;16.106;2023-02-07T03:07:30;22.60;23.90
67101;DHT22;54019;61.746;16.106;2023-02-07T03:10:03;22.60;23.90
67101;DHT22;54019;61.746;16.106;2023-02-07T03:12:36;22.50;23.90
67101;DHT22;54019;61.746;16.106;2023-02-07T03:15:09;22.50;24.00
67101;DHT22;54019;61.746;16.106;2023-02-07T03:17:45;22.50;24.00
67101;DHT22;54019;61.746;16.106;2023-02-07T03:20:18;22.40;23.90
67101;DHT22;54019;61.746;16.106;2023-02-07T03:22:45;22.40;23.80
67101;DHT22;54019;61.746;16.106;2023-02-07T03:25:14;22.40;23.90
67101;DHT22;54019;61.746;16.106;2023-02-07T03:27:40;22.40;23.80
67101;DHT22;54019;61.746;16.106;2023-02-07T03:30:10;22.50;23.90
67101;DHT22;54019;61.746;16.106;2023-02-07T03:32:39;22.50;23.90
67101;DHT22;54019;61.746;16.106;2023-02-07T03:35:10;22.60;23.80
67101;DHT22;54019;61.746;16.106;2023-02-07T03:37:41;22.60;23.70
67101;DHT22;54019;61.746;16.106;2023-02-07T03:40:09;22.60;23.60
67101;DHT22;54019;61.746;16.106;2023-02-07T03:42:38;22.70;23.70
67101;DHT22;54019;61.746;16.106;2023-02-07T03:45:06;22.60;23.50
67101;DHT22;54019;61.746;16.106;2023-02-07T03:47:34;22.60;23.60
67101;DHT22;54019;61.746;16.106;2023-02-07T03:50:00;22.50;23.60
67101;DHT22;54019;61.746;16.106;2023-02-07T03:52:25;22.50;23.70
67101;DHT22;54019;61.746;16.106;2023-02-07T03:54:53;22.40;23.60
67101;DHT22;54019;61.746;16.106;2023-02-07T03:57:18;22.40;23.50
67101;DHT22;54019;61.746;16.106;2023-02-07T03:59:44;22.40;23.60
67101;DHT22;54019;61.746;16.106;2023-02-07T04:02:10;22.40;23.60
67101;DHT22;54019;61.746;16.106;2023-02-07T04:04:36;22.40;23.60
67101;DHT22;54019;61.746;16.106;2023-02-07T04:07:02;22.40;23.50
67101;DHT22;54019;61.746;16.106;2023-02-07T04:09:28;22.50;23.60
67101;DHT22;54019;61.746;16.106;2023-02-07T04:11:55;22.50;23.60
67101;DHT22;54019;61.746;16.106;2023-02-07T04:14:21;22.60;23.50
67101;DHT22;54019;61.746;16.106;2023-02-07T04:16:47;22.60;23.50
67101;DHT22;54019;61.746;16.106;2023-02-07T04:19:14;22.60;23.50
67101;DHT22;54019;61.746;16.106;2023-02-07T04:21:40;22.60;23.50
67101;DHT22;54019;61.746;16.106;2023-02-07T04:24:06;22.60;23.50
67101;DHT22;54019;61.746;16.106;2023-02-07T04:26:31;22.60;23.50
67101;DHT22;54019;61.746;16.106;2023-02-07T04:28:58;22.50;23.50
67101;DHT22;54019;61.746;16.106;2023-02-07T04:31:24;22.50;23.60
67101;DHT22;54019;61.746;16.106;2023-02-07T04:33:50;22.40;23.50
67101;DHT22;54019;61.746;16.106;2023-02-07T04:36:16;22.40;23.50
67101;DHT22;54019;61.746;16.106;2023-02-07T04:38:42;22.40;23.50
67101;DHT22;54019;61.746;16.106;2023-02-07T04:41:07;22.40;23.50
67101;DHT22;54019;61.746;16.106;2023-02-07T04:43:35;22.40;23.50
67101;DHT22;54019;61.746;16.106;2023-02-07T04:46:05;22.40;23.50
67101;DHT22;54019;61.746;16.106;2023-02-07T04:48:31;22.40;23.40
67101;DHT22;54019;61.746;16.106;2023-02-07T04:50:57;22.50;23.50
67101;DHT22;54019;61.746;16.106;2023-02-07T04:53:23;22.50;23.50
67101;DHT22;54019;61.746;16.106;2023-02-07T04:55:49;22.60;23.10
67101;DHT22;54019;61.746;16.106;2023-02-07T04:58:15;22.60;23.30
67101;DHT22;54019;61.746;16.106;2023-02-07T05:00:41;22.70;23.50
67101;DHT22;54019;61.746;16.106;2023-02-07T05:03:09;22.70;23.40
67101;DHT22;54019;61.746;16.106;2023-02-07T05:05:37;22.70;23.40
67101;DHT22;54019;61.746;16.106;2023-02-07T05:08:03;22.60;23.40
67101;DHT22;54019;61.746;16.106;2023-02-07T05:10:29;22.60;24.10
67101;DHT22;54019;61.746;16.106;2023-02-07T05:12:55;22.50;23.50
67101;DHT22;54019;61.746;16.106;2023-02-07T05:15:20;22.50;23.50
67101;DHT22;54019;61.746;16.106;2023-02-07T05:17:46;22.40;23.40
67101;DHT22;54019;61.746;16.106;2023-02-07T05:20:13;22.50;23.50
67101;DHT22;54019;61.746;16.106;2023-02-07T05:22:39;22.50;23.50
67101;DHT22;54019;61.746;16.106;2023-02-07T05:25:05;22.50;23.50
67101;DHT22;54019;61.746;16.106;2023-02-07T05:27:31;22.50;23.50
67101;DHT22;54019;61.746;16.106;2023-02-07T05:29:57;22.60;23.40
67101;DHT22;54019;61.746;16.106;2023-02-07T05:32:23;22.70;23.40
67101;DHT22;54019;61.746;16.106;2023-02-07T05:34:49;22.70;23.30
67101;DHT22;54019;61.746;16.106;2023-02-07T05:37:16;22.70;23.30
67101;DHT22;54019;61.746;16.106;2023-02-07T05:39:42;22.70;23.30
67101;DHT22;54019;61.746;16.106;2023-02-07T05:42:08;22.70;23.40
67101;DHT22;54019;61.746;16.106;2023-02-07T05:44:34;22.70;23.30
67101;DHT22;54019;61.746;16.106;2023-02-07T05:47:00;22.50;23.10
67101;DHT22;54019;61.746;16.106;2023-02-07T05:49:25;22.50;23.20
67101;DHT22;54019;61.746;16.106;2023-02-07T05:51:51;22.50;23.70
67101;DHT22;54019;61.746;16.106;2023-02-07T05:54:18;22.40;23.70
67101;DHT22;54019;61.746;16.106;2023-02-07T05:56:44;22.50;25.00
67101;DHT22;54019;61.746;16.106;2023-02-07T05:59:10;22.50;24.40
67101;DHT22;54019;61.746;16.106;2023-02-07T06:01:36;22.60;24.60
67101;DHT22;54019;61.746;16.106;2023-02-07T06:04:01;22.70;24.60
67101;DHT22;54019;61.746;16.106;2023-02-07T06:06:27;22.60;24.20
67101;DHT22;54019;61.746;16.106;2023-02-07T06:08:53;22.70;24.20
67101;DHT22;54019;61.746;16.106;2023-02-07T06:11:20;22.70;23.70
67101;DHT22;54019;61.746;16.106;2023-02-07T06:13:46;22.70;23.80
67101;DHT22;54019;61.746;16.106;2023-02-07T06:16:12;22.70;23.60
67101;DHT22;54019;61.746;16.106;2023-02-07T06:18:37;22.70;23.60
67101;DHT22;54019;61.746;16.106;2023-02-07T06:21:04;22.80;23.70
67101;DHT22;54019;61.746;16.106;2023-02-07T06:23:29;22.80;23.40
67101;DHT22;54019;61.746;16.106;2023-02-07T06:25:55;22.70;23.60
67101;DHT22;54019;61.746;16.106;2023-02-07T06:28:22;22.70;23.60
67101;DHT22;54019;61.746;16.106;2023-02-07T06:30:49;22.70;23.70
67101;DHT22;54019;61.746;16.106;2023-02-07T06:33:15;22.60;23.50
67101;DHT22;54019;61.746;16.106;2023-02-07T06:35:41;22.50;23.50
67101;DHT22;54019;61.746;16.106;2023-02-07T06:38:07;22.50;23.40
67101;DHT22;54019;61.746;16.106;2023-02-07T06:40:33;22.50;23.80
67101;DHT22;54019;61.746;16.106;2023-02-07T06:42:59;22.40;23.40
67101;DHT22;54019;61.746;16.106;2023-02-07T06:45:26;22.40;23.50
67101;DHT22;54019;61.746;16.106;2023-02-07T06:47:52;22.40;23.40
67101;DHT22;54019;61.746;16.106;2023-02-07T06:50:18;22.50;23.40
67101;DHT22;54019;61.746;16.106;2023-02-07T06:52:44;22.50;23.20
67101;DHT22;54019;61.746;16.106;2023-02-07T06:55:09;22.50;23.20
67101;DHT22;54019;61.746;16.106;2023-02-07T06:57:35;22.60;23.10
67101;DHT22;54019;61.746;16.106;2023-02-07T07:00:02;22.60;22.90
67101;DHT22;54019;61.746;16.106;2023-02-07T07:02:29;22.60;22.90
67101;DHT22;54019;61.746;16.106;2023-02-07T07:04:55;22.70;22.90
67101;DHT22;54019;61.746;16.106;2023-02-07T07:07:21;22.70;22.70
67101;DHT22;54019;61.746;16.106;2023-02-07T07:09:47;22.70;22.70
67101;DHT22;54019;61.746;16.106;2023-02-07T07:12:13;22.70;22.60
67101;DHT22;54019;61.746;16.106;2023-02-07T07:14:39;22.70;22.50
67101;DHT22;54019;61.746;16.106;2023-02-07T07:17:05;22.80;22.40
67101;DHT22;54019;61.746;16.106;2023-02-07T07:19:32;22.80;22.40
67101;DHT22;54019;61.746;16.106;2023-02-07T07:21:58;22.70;22.40
67101;DHT22;54019;61.746;16.106;2023-02-07T07:24:24;22.70;22.40
67101;DHT22;54019;61.746;16.106;2023-02-07T07:26:50;22.70;22.50
67101;DHT22;54019;61.746;16.106;2023-02-07T07:29:16;22.70;22.50
67101;DHT22;54019;61.746;16.106;2023-02-07T07:31:42;22.60;22.70
67101;DHT22;54019;61.746;16.106;2023-02-07T07:34:08;22.60;22.80
67101;DHT22;54019;61.746;16.106;2023-02-07T07:36:35;22.50;22.70
67101;DHT22;54019;61.746;16.106;2023-02-07T07:39:01;22.50;22.70
67101;DHT22;54019;61.746;16.106;2023-02-07T07:41:27;22.40;22.60
67101;DHT22;54019;61.746;16.106;2023-02-07T07:43:52;22.40;22.10
67101;DHT22;54019;61.746;16.106;2023-02-07T07:46:18;22.40;21.90
67101;DHT22;54019;61.746;16.106;2023-02-07T07:48:44;22.40;22.10
67101;DHT22;54019;61.746;16.106;2023-02-07T07:51:10;22.50;22.70
67101;DHT22;54019;61.746;16.106;2023-02-07T07:53:37;22.50;22.20
67101;DHT22;54019;61.746;16.106;2023-02-07T07:56:03;22.50;21.90
67101;DHT22;54019;61.746;16.106;2023-02-07T07:58:29;22.60;21.70
67101;DHT22;54019;61.746;16.106;2023-02-07T08:00:56;22.60;21.50
67101;DHT22;54019;61.746;16.106;2023-02-07T08:03:22;22.60;21.70
67101;DHT22;54019;61.746;16.106;2023-02-07T08:05:49;22.50;21.90
67101;DHT22;54019;61.746;16.106;2023-02-07T08:08:15;22.50;22.20
67101;DHT22;54019;61.746;16.106;2023-02-07T08:10:43;22.50;22.70
67101;DHT22;54019;61.746;16.106;2023-02-07T08:13:09;22.40;22.60
67101;DHT22;54019;61.746;16.106;2023-02-07T08:15:35;22.40;22.50
67101;DHT22;54019;61.746;16.106;2023-02-07T08:18:00;22.40;22.40
67101;DHT22;54019;61.746;16.106;2023-02-07T08:20:26;22.40;22.50
67101;DHT22;54019;61.746;16.106;2023-02-07T08:22:52;22.30;22.50
67101;DHT22;54019;61.746;16.106;2023-02-07T08:25:18;22.30;22.50
67101;DHT22;54019;61.746;16.106;2023-02-07T08:27:45;22.30;22.40
67101;DHT22;54019;61.746;16.106;2023-02-07T08:30:13;22.30;22.40
67101;DHT22;54019;61.746;16.106;2023-02-07T08:32:39;22.30;22.70
67101;DHT22;54019;61.746;16.106;2023-02-07T08:35:05;22.40;23.00
67101;DHT22;54019;61.746;16.106;2023-02-07T08:37:31;22.40;23.40
67101;DHT22;54019;61.746;16.106;2023-02-07T08:39:58;22.40;23.20
67101;DHT22;54019;61.746;16.106;2023-02-07T08:42:24;22.40;23.30
67101;DHT22;54019;61.746;16.106;2023-02-07T08:44:51;22.50;23.40
67101;DHT22;54019;61.746;16.106;2023-02-07T08:47:17;22.50;23.40
67101;DHT22;54019;61.746;16.106;2023-02-07T08:49:43;22.60;23.20
67101;DHT22;54019;61.746;16.106;2023-02-07T08:52:12;22.70;23.00
67101;DHT22;54019;61.746;16.106;2023-02-07T08:54:38;22.70;22.90
67101;DHT22;54019;61.746;16.106;2023-02-07T08:57:04;22.80;22.70
67101;DHT22;54019;61.746;16.106;2023-02-07T08:59:30;22.80;22.90
67101;DHT22;54019;61.746;16.106;2023-02-07T09:01:57;22.80;22.90
67101;DHT22;54019;61.746;16.106;2023-02-07T09:04:23;22.80;22.90
67101;DHT22;54019;61.746;16.106;2023-02-07T09:06:49;22.80;22.90
67101;DHT22;54019;61.746;16.106;2023-02-07T09:09:14;22.80;22.90
67101;DHT22;54019;61.746;16.106;2023-02-07T09:11:40;22.90;22.90
67101;DHT22;54019;61.746;16.106;2023-02-07T09:14:06;22.90;22.70
67101;DHT22;54019;61.746;16.106;2023-02-07T09:16:32;22.90;22.90
67101;DHT22;54019;61.746;16.106;2023-02-07T09:18:59;22.90;22.80
67101;DHT22;54019;61.746;16.106;2023-02-07T09:21:25;22.90;22.80
67101;DHT22;54019;61.746;16.106;2023-02-07T09:23:52;23.00;22.70
67101;DHT22;54019;61.746;16.106;2023-02-07T09:26:19;22.90;22.70
67101;DHT22;54019;61.746;16.106;2023-02-07T09:28:46;23.00;22.80
67101;DHT22;54019;61.746;16.106;2023-02-07T09:31:13;23.00;22.70
67101;DHT22;54019;61.746;16.106;2023-02-07T09:33:40;23.00;22.60
67101;DHT22;54019;61.746;16.106;2023-02-07T09:36:17;23.10;22.80
67101;DHT22;54019;61.746;16.106;2023-02-07T09:38:43;23.20;22.70
67101;DHT22;54019;61.746;16.106;2023-02-07T09:41:20;23.30;22.60
67101;DHT22;54019;61.746;16.106;2023-02-07T09:44:05;23.30;22.50
67101;DHT22;54019;61.746;16.106;2023-02-07T09:46:35;23.30;22.40
67101;DHT22;54019;61.746;16.106;2023-02-07T09:49:05;23.20;22.60
67101;DHT22;54019;61.746;16.106;2023-02-07T09:51:36;23.20;22.60
67101;DHT22;54019;61.746;16.106;2023-02-07T09:54:06;23.20;22.60
67101;DHT22;54019;61.746;16.106;2023-02-07T09:56:37;23.10;22.70
67101;DHT22;54019;61.746;16.106;2023-02-07T09:59:05;23.10;22.70
67101;DHT22;54019;61.746;16.106;2023-02-07T10:01:43;23.00;22.50
67101;DHT22;54019;61.746;16.106;2023-02-07T10:04:27;23.00;22.70
67101;DHT22;54019;61.746;16.106;2023-02-07T10:06:56;23.00;22.80
67101;DHT22;54019;61.746;16.106;2023-02-07T10:09:24;23.00;22.90
67101;DHT22;54019;61.746;16.106;2023-02-07T10:11:54;23.00;22.90
67101;DHT22;54019;61.746;16.106;2023-02-07T10:14:43;23.00;22.90
67101;DHT22;54019;61.746;16.106;2023-02-07T10:17:24;23.10;23.50
67101;DHT22;54019;61.746;16.106;2023-02-07T10:20:03;23.10;23.00
67101;DHT22;54019;61.746;16.106;2023-02-07T10:22:37;23.10;22.90
67101;DHT22;54019;61.746;16.106;2023-02-07T10:25:16;23.10;22.80
67101;DHT22;54019;61.746;16.106;2023-02-07T10:27:54;23.20;22.70
67101;DHT22;54019;61.746;16.106;2023-02-07T10:30:26;23.30;22.70
67101;DHT22;54019;61.746;16.106;2023-02-07T10:32:53;23.30;22.70
67101;DHT22;54019;61.746;16.106;2023-02-07T10:35:21;23.20;22.70
67101;DHT22;54019;61.746;16.106;2023-02-07T10:37:50;23.20;22.70
67101;DHT22;54019;61.746;16.106;2023-02-07T10:40:22;23.20;22.80
67101;DHT22;54019;61.746;16.106;2023-02-07T10:42:54;23.20;22.80
67101;DHT22;54019;61.746;16.106;2023-02-07T10:45:21;23.10;22.90
67101;DHT22;54019;61.746;16.106;2023-02-07T10:47:46;23.10;22.90
67101;DHT22;54019;61.746;16.106;2023-02-07T10:50:15;23.00;22.90
67101;DHT22;54019;61.746;16.106;2023-02-07T10:52:45;23.00;23.00
67101;DHT22;54019;61.746;16.106;2023-02-07T10:55:17;23.00;23.00
67101;DHT22;54019;61.746;16.106;2023-02-07T10:57:52;23.00;23.00
67101;DHT22;54019;61.746;16.106;2023-02-07T11:00:23;23.00;23.00
67101;DHT22;54019;61.746;16.106;2023-02-07T11:02:50;23.00;23.00
67101;DHT22;54019;61.746;16.106;2023-02-07T11:05:49;23.00;22.90
67101;DHT22;54019;61.746;16.106;2023-02-07T11:08:19;23.10;22.90
67101;DHT22;54019;61.746;16.106;2023-02-07T11:10:46;23.10;22.90
67101;DHT22;54019;61.746;16.106;2023-02-07T11:13:13;23.10;22.80
67101;DHT22;54019;61.746;16.106;2023-02-07T11:15:47;23.20;22.70
67101;DHT22;54019;61.746;16.106;2023-02-07T11:21:21;23.20;22.50
67101;DHT22;54019;61.746;16.106;2023-02-07T11:23:49;23.10;22.90
67101;DHT22;54019;61.746;16.106;2023-02-07T11:26:17;23.10;23.00
67101;DHT22;54019;61.746;16.106;2023-02-07T11:28:43;23.00;23.00
67101;DHT22;54019;61.746;16.106;2023-02-07T11:31:12;23.00;23.00
67101;DHT22;54019;61.746;16.106;2023-02-07T11:33:39;23.00;23.00
67101;DHT22;54019;61.746;16.106;2023-02-07T11:36:10;23.00;23.00
67101;DHT22;54019;61.746;16.106;2023-02-07T11:38:38;22.90;23.10
67101;DHT22;54019;61.746;16.106;2023-02-07T11:41:05;22.90;23.20
67101;DHT22;54019;61.746;16.106;2023-02-07T11:43:33;22.90;23.50
67101;DHT22;54019;61.746;16.106;2023-02-07T11:46:02;22.90;23.20
67101;DHT22;54019;61.746;16.106;2023-02-07T11:48:30;22.90;23.20
67101;DHT22;54019;61.746;16.106;2023-02-07T11:50:59;22.90;23.20
67101;DHT22;54019;61.746;16.106;2023-02-07T11:53:33;23.00;23.10
67101;DHT22;54019;61.746;16.106;2023-02-07T11:56:01;23.00;23.00
67101;DHT22;54019;61.746;16.106;2023-02-07T11:58:33;23.00;23.00
67101;DHT22;54019;61.746;16.106;2023-02-07T12:01:00;23.00;23.00
67101;DHT22;54019;61.746;16.106;2023-02-07T12:03:30;23.10;23.10
67101;DHT22;54019;61.746;16.106;2023-02-07T12:05:59;23.10;22.90
67101;DHT22;54019;61.746;16.106;2023-02-07T12:08:27;23.10;22.90
67101;DHT22;54019;61.746;16.106;2023-02-07T12:10:58;23.10;22.80
67101;DHT22;54019;61.746;16.106;2023-02-07T12:13:29;23.20;22.70
67101;DHT22;54019;61.746;16.106;2023-02-07T12:16:02;23.20;22.70
67101;DHT22;54019;61.746;16.106;2023-02-07T12:18:31;23.20;22.90
67101;DHT22;54019;61.746;16.106;2023-02-07T12:21:03;23.10;23.00
67101;DHT22;54019;61.746;16.106;2023-02-07T12:23:37;23.00;23.00
67101;DHT22;54019;61.746;16.106;2023-02-07T12:26:15;23.00;23.00
67101;DHT22;54019;61.746;16.106;2023-02-07T12:28:50;23.00;23.00
67101;DHT22;54019;61.746;16.106;2023-02-07T12:31:21;23.00;23.00
67101;DHT22;54019;61.746;16.106;2023-02-07T12:33:56;23.00;23.00
67101;DHT22;54019;61.746;16.106;2023-02-07T12:36:24;23.00;23.00
67101;DHT22;54019;61.746;16.106;2023-02-07T12:38:53;23.00;23.00
67101;DHT22;54019;61.746;16.106;2023-02-07T12:41:24;23.10;23.10
67101;DHT22;54019;61.746;16.106;2023-02-07T12:44:00;23.10;23.00
67101;DHT22;54019;61.746;16.106;2023-02-07T12:46:37;23.10;23.00
67101;DHT22;54019;61.746;16.106;2023-02-07T12:49:17;23.20;22.90
67101;DHT22;54019;61.746;16.106;2023-02-07T12:51:52;23.20;22.80
67101;DHT22;54019;61.746;16.106;2023-02-07T12:54:28;23.20;22.80
67101;DHT22;54019;61.746;16.106;2023-02-07T12:56:59;23.20;22.80
67101;DHT22;54019;61.746;16.106;2023-02-07T12:59:36;23.20;22.90
67101;DHT22;54019;61.746;16.106;2023-02-07T13:02:18;23.10;23.00
67101;DHT22;54019;61.746;16.106;2023-02-07T13:07:55;23.10;23.10
67101;DHT22;54019;61.746;16.106;2023-02-07T13:10:28;23.00;23.00
67101;DHT22;54019;61.746;16.106;2023-02-07T13:13:00;23.00;23.10
67101;DHT22;54019;61.746;16.106;2023-02-07T13:15:35;22.90;23.10
67101;DHT22;54019;61.746;16.106;2023-02-07T13:18:07;22.90;23.20
67101;DHT22;54019;61.746;16.106;2023-02-07T13:20:57;22.90;23.20
67101;DHT22;54019;61.746;16.106;2023-02-07T13:23:29;22.90;23.20
67101;DHT22;54019;61.746;16.106;2023-02-07T13:25:58;22.90;23.10
67101;DHT22;54019;61.746;16.106;2023-02-07T13:28:27;23.00;23.00
67101;DHT22;54019;61.746;16.106;2023-02-07T13:30:56;23.00;23.00
67101;DHT22;54019;61.746;16.106;2023-02-07T13:33:28;23.10;23.10
67101;DHT22;54019;61.746;16.106;2023-02-07T13:36:00;23.00;23.00
67101;DHT22;54019;61.746;16.106;2023-02-07T13:38:45;23.10;23.10
67101;DHT22;54019;61.746;16.106;2023-02-07T13:41:21;23.00;23.00
67101;DHT22;54019;61.746;16.106;2023-02-07T13:43:54;23.00;23.00
67101;DHT22;54019;61.746;16.106;2023-02-07T13:46:47;23.00;23.00
67101;DHT22;54019;61.746;16.106;2023-02-07T13:49:22;23.00;23.00
67101;DHT22;54019;61.746;16.106;2023-02-07T13:51:57;23.00;23.00
67101;DHT22;54019;61.746;16.106;2023-02-07T13:54:31;22.90;23.00
67101;DHT22;54019;61.746;16.106;2023-02-07T13:57:00;22.90;23.10
67101;DHT22;54019;61.746;16.106;2023-02-07T13:59:34;22.80;23.10
67101;DHT22;54019;61.746;16.106;2023-02-07T14:02:00;22.80;23.20
67101;DHT22;54019;61.746;16.106;2023-02-07T14:04:45;22.80;23.20
67101;DHT22;54019;61.746;16.106;2023-02-07T14:07:18;22.80;23.30
67101;DHT22;54019;61.746;16.106;2023-02-07T14:09:46;22.80;23.30
67101;DHT22;54019;61.746;16.106;2023-02-07T14:12:18;22.90;23.30
67101;DHT22;54019;61.746;16.106;2023-02-07T14:14:45;22.90;23.30
67101;DHT22;54019;61.746;16.106;2023-02-07T14:17:13;22.90;23.20
67101;DHT22;54019;61.746;16.106;2023-02-07T14:19:54;22.90;23.20
67101;DHT22;54019;61.746;16.106;2023-02-07T14:22:24;23.00;23.10
67101;DHT22;54019;61.746;16.106;2023-02-07T14:25:22;23.00;23.00
67101;DHT22;54019;61.746;16.106;2023-02-07T14:28:29;23.00;23.00
67101;DHT22;54019;61.746;16.106;2023-02-07T14:31:02;22.90;23.10
67101;DHT22;54019;61.746;16.106;2023-02-07T14:33:34;22.90;23.10
67101;DHT22;54019;61.746;16.106;2023-02-07T14:39:05;22.90;23.20
67101;DHT22;54019;61.746;16.106;2023-02-07T14:41:46;22.80;23.30
67101;DHT22;54019;61.746;16.106;2023-02-07T14:44:22;22.70;23.50
67101;DHT22;54019;61.746;16.106;2023-02-07T14:46:51;22.70;23.50
67101;DHT22;54019;61.746;16.106;2023-02-07T14:49:20;22.70;23.90
67101;DHT22;54019;61.746;16.106;2023-02-07T14:51:50;22.70;23.80
67101;DHT22;54019;61.746;16.106;2023-02-07T14:54:21;22.70;23.80
67101;DHT22;54019;61.746;16.106;2023-02-07T14:56:55;22.70;23.80
67101;DHT22;54019;61.746;16.106;2023-02-07T14:59:27;22.70;23.70
67101;DHT22;54019;61.746;16.106;2023-02-07T15:01:55;22.70;23.70
67101;DHT22;54019;61.746;16.106;2023-02-07T15:04:21;22.70;23.60
67101;DHT22;54019;61.746;16.106;2023-02-07T15:06:48;22.70;23.50
67101;DHT22;54019;61.746;16.106;2023-02-07T15:09:18;22.80;23.40
67101;DHT22;54019;61.746;16.106;2023-02-07T15:11:44;22.80;23.30
67101;DHT22;54019;61.746;16.106;2023-02-07T15:14:19;22.80;23.20
67101;DHT22;54019;61.746;16.106;2023-02-07T15:16:45;22.80;23.20
67101;DHT22;54019;61.746;16.106;2023-02-07T15:19:16;22.80;23.10
67101;DHT22;54019;61.746;16.106;2023-02-07T15:21:45;22.80;23.10
67101;DHT22;54019;61.746;16.106;2023-02-07T15:24:16;22.70;23.20
67101;DHT22;54019;61.746;16.106;2023-02-07T15:26:47;22.70;23.20
67101;DHT22;54019;61.746;16.106;2023-02-07T15:29:19;22.70;23.30
67101;DHT22;54019;61.746;16.106;2023-02-07T15:31:45;22.70;23.30
67101;DHT22;54019;61.746;16.106;2023-02-07T15:34:13;22.60;23.20
67101;DHT22;54019;61.746;16.106;2023-02-07T15:36:41;22.60;23.30
67101;DHT22;54019;61.746;16.106;2023-02-07T15:39:18;22.50;23.70
67101;DHT22;54019;61.746;16.106;2023-02-07T15:41:45;22.60;23.70
67101;DHT22;54019;61.746;16.106;2023-02-07T15:44:19;22.60;23.80